»·PEaware :: N930MC KCNO-KSAN

N930MC :: KCNO-KSAN

FLIGHT INFORMATION

Flight Status: Arrived
Operator: Privately registered:
United States
More flights under this callsign
Pilot: Reece H. (589)
Aircraft: BEECH AIRCRAFT A90-E90 KING AIR
(BE9L)
More flights by this aircraft type
Origin: KCNO Chino
United States
Destination: KSAN San Diego Intl-Lindbergh
United States
More flights between these airports :: More routes between these airports
Route: +PDZ V186 HAILE V66 MZB
File this flight plan on PilotEdge
Remarks: TEC route ONTN12
Altitude:
(Current/Filed)
11,000ft
Speed:
(Current/Filed)
230kts
Departed: 03-Feb-15 12:54 PM
Arrived: 03-Feb-15 01:34 PM
Distance/Time
Traveled:
78nm/0:40
Distance/Time
To Go:
Arrived

Flight Plot

Page will automatically refresh every two minutes.


Map Options




Map Legend


Flown Route
Filed Route
Departure Airport
Arrival Airport
Navaid (VOR, NDB)
Fix

Horizontal Profiles

Position Reports

Time Latitude Longitude Heading Altitude Ground
Speed
03-Feb-15 12:39 33.980120 -117.644896 90 654ft 0kts
03-Feb-15 12:40 33.980120 -117.644896 90 654ft 0kts
03-Feb-15 12:41 33.980120 -117.644896 90 654ft 0kts
03-Feb-15 12:42 33.980120 -117.644896 90 654ft 0kts
03-Feb-15 12:43 33.980120 -117.644896 90 654ft 0kts
03-Feb-15 12:44 33.980116 -117.644844 101 654ft 2kts
03-Feb-15 12:45 33.978748 -117.643453 153 654ft 13kts
03-Feb-15 12:46 33.976887 -117.640250 90 654ft 19kts
03-Feb-15 12:47 33.976940 -117.633469 89 654ft 22kts
03-Feb-15 12:48 33.976787 -117.630880 160 654ft 0kts
03-Feb-15 12:49 33.975802 -117.638003 269 659ft 105kts
03-Feb-15 12:50 33.977652 -117.680874 274 1986ft 146kts
03-Feb-15 12:51 33.980936 -117.730923 274 3483ft 155kts
03-Feb-15 12:52 33.958205 -117.755417 136 4959ft 155kts
03-Feb-15 12:53 33.950341 -117.706853 98 6399ft 160kts
03-Feb-15 12:54 33.941902 -117.652434 102 7586ft 177kts
03-Feb-15 12:55 33.931060 -117.594258 103 8777ft 181kts
03-Feb-15 12:56 33.917301 -117.532276 127 8980ft 211kts
03-Feb-15 12:57 33.870756 -117.490151 144 9011ft 217kts
03-Feb-15 12:58 33.825821 -117.452433 145 9969ft 188kts
03-Feb-15 12:59 33.787994 -117.420841 145 10865ft 174kts
03-Feb-15 13:00 33.745507 -117.385461 145 10994ft 205kts
03-Feb-15 13:01 33.697145 -117.345162 145 10984ft 220kts
03-Feb-15 13:02 33.647502 -117.303799 145 10980ft 225kts
03-Feb-15 13:03 33.604741 -117.268199 145 10978ft 226kts
03-Feb-15 13:04 33.553382 -117.225504 145 10978ft 227kts
03-Feb-15 13:05 33.503061 -117.183740 145 10976ft 227kts
03-Feb-15 13:06 33.448159 -117.155664 169 10972ft 227kts
03-Feb-15 13:07 33.389292 -117.143294 169 10987ft 227kts
03-Feb-15 13:08 33.328508 -117.130428 169 10983ft 227kts
03-Feb-15 13:09 33.267573 -117.117533 169 10980ft 227kts
03-Feb-15 13:10 33.212752 -117.087644 143 10765ft 223kts
03-Feb-15 13:11 33.163996 -117.044782 143 9863ft 222kts
03-Feb-15 13:12 33.114637 -117.001378 143 8948ft 219kts
03-Feb-15 13:13 33.066605 -116.959222 143 8090ft 217kts
03-Feb-15 13:14 33.019315 -116.917808 143 7218ft 215kts
03-Feb-15 13:15 32.975026 -116.878939 143 6997ft 201kts
03-Feb-15 13:16 32.931548 -116.840753 143 6999ft 192kts
03-Feb-15 13:17 32.888986 -116.803495 143 6999ft 194kts
03-Feb-15 13:18 32.845205 -116.764654 143 7003ft 201kts
03-Feb-15 13:19 32.797822 -116.758563 213 6657ft 192kts
03-Feb-15 13:20 32.752888 -116.791984 213 5786ft 193kts
03-Feb-15 13:21 32.708017 -116.825913 213 5011ft 189kts
03-Feb-15 13:22 32.681129 -116.872031 254 4994ft 178kts
03-Feb-15 13:23 32.671212 -116.928407 283 4946ft 175kts
03-Feb-15 13:24 32.683898 -116.983382 286 4088ft 174kts
03-Feb-15 13:25 32.696845 -117.037149 287 3086ft 171kts
03-Feb-15 13:26 32.709840 -117.090622 287 2004ft 166kts
03-Feb-15 13:27 32.720444 -117.136460 287 1201ft 140kts
03-Feb-15 13:28 32.729223 -117.171941 287 219ft 104kts
03-Feb-15 13:29 32.733940 -117.188149 11 21ft 0kts
03-Feb-15 13:30 32.734370 -117.187700 101 21ft 0kts

Navigation Log

Ident Type
Flight plan parsing failed, navigation log unavailable